Time;durP1;ratioP1;P1;durP2;ratioP2;P2;SDS_P1;SDS_P2;PMS_P1;PMS_P2;Temp;Humidity;BMP_temperature;BMP_pressure;BME280_temperature;BME280_humidity;BME280_pressure;Samples;Min_cycle;Max_cycle;Signal;HPM_P1;HPM_P2
2021/01/16 00:00:21;;;;;;;1999.90;999.90;;;-3.70;99.90;;;;;;5013378;28;20444;-47
2021/01/16 00:02:47;;;;;;;1999.90;999.90;;;-3.80;99.90;;;;;;5021477;28;20985;-47
2021/01/16 00:05:15;;;;;;;1999.90;999.90;;;-3.90;99.90;;;;;;5018592;28;20487;-47
2021/01/16 00:07:46;;;;;;;1999.90;999.90;;;-3.90;99.90;;;;;;5009111;28;20195;-47
2021/01/16 00:10:14;;;;;;;1999.90;999.90;;;-3.90;99.90;;;;;;5018282;28;20806;-46
2021/01/16 00:12:40;;;;;;;1999.90;999.90;;;-3.90;99.90;;;;;;5014363;28;20503;-47
2021/01/16 00:15:06;;;;;;;1999.90;999.90;;;-3.90;99.90;;;;;;5023772;28;20953;-46
2021/01/16 00:17:32;;;;;;;1999.90;999.90;;;-3.90;99.90;;;;;;5020780;28;20458;-47
2021/01/16 00:19:58;;;;;;;1999.90;999.90;;;-3.80;99.90;;;;;;5008221;28;20832;-47
2021/01/16 00:22:24;;;;;;;1999.90;999.90;;;-3.80;99.90;;;;;;5008834;28;20219;-47
2021/01/16 00:24:49;;;;;;;1999.90;999.90;;;-3.80;99.90;;;;;;5025037;28;20184;-47
2021/01/16 00:27:15;;;;;;;1999.90;999.90;;;-3.90;99.90;;;;;;5015780;28;20203;-47
2021/01/16 00:29:41;;;;;;;1999.90;999.90;;;-3.90;99.90;;;;;;5013624;28;20196;-47
2021/01/16 00:32:07;;;;;;;1999.90;999.90;;;-4.00;99.90;;;;;;5014081;28;20445;-47
2021/01/16 00:34:32;;;;;;;1999.90;999.90;;;-4.00;99.90;;;;;;5014058;28;20225;-47
2021/01/16 00:36:58;;;;;;;1999.90;999.90;;;-4.00;99.90;;;;;;5007533;28;20617;-47
2021/01/16 00:39:23;;;;;;;1999.90;999.90;;;-4.10;99.90;;;;;;5018012;28;20192;-47
2021/01/16 00:41:49;;;;;;;1999.90;999.90;;;-4.00;99.90;;;;;;5026923;28;20254;-47
2021/01/16 00:44:15;;;;;;;1999.90;999.90;;;-4.10;99.90;;;;;;5011928;28;20241;-47
2021/01/16 00:46:41;;;;;;;1999.90;999.90;;;-4.10;99.90;;;;;;5019520;28;20465;-47
2021/01/16 00:49:07;;;;;;;1999.90;999.90;;;-4.10;99.90;;;;;;5017124;28;20554;-46
2021/01/16 15:53:40;;;;;;;1999.90;999.90;;;-4.40;99.90;;;;;;5109584;27;20552;-47
2021/01/16 15:56:05;;;;;;;1999.90;999.90;;;-4.50;99.90;;;;;;5109338;28;20259;-48
2021/01/16 15:58:32;;;;;;;1999.90;999.90;;;-4.40;99.90;;;;;;5110210;28;20190;-48
2021/01/16 16:01:15;;;;;;;1999.90;999.90;;;-4.40;99.90;;;;;;5110044;28;20221;-47
2021/01/16 16:03:46;;;;;;;1999.90;999.90;;;-4.40;99.90;;;;;;5110113;28;20175;-47
2021/01/16 16:06:13;;;;;;;1999.90;999.90;;;-4.40;99.90;;;;;;5108762;28;20198;-48
2021/01/16 16:08:38;;;;;;;1999.90;999.90;;;-4.40;99.90;;;;;;5108203;28;20237;-48
2021/01/16 16:11:05;;;;;;;1999.90;999.90;;;-4.40;99.90;;;;;;5109671;28;20180;-47
2021/01/16 16:13:36;;;;;;;1999.90;999.90;;;-4.40;99.90;;;;;;5109602;28;20199;-48
2021/01/16 16:16:03;;;;;;;1999.90;999.90;;;-4.40;99.90;;;;;;5108829;28;20206;-48
2021/01/16 16:18:29;;;;;;;1999.90;999.90;;;-4.40;99.90;;;;;;5099953;28;20219;-47
2021/01/16 16:20:56;;;;;;;1999.90;999.90;;;-4.40;99.90;;;;;;5099857;28;20207;-47
2021/01/16 16:23:22;;;;;;;1999.90;999.90;;;-4.40;99.90;;;;;;5104120;28;20879;-47
2021/01/16 16:25:48;;;;;;;1999.90;999.90;;;-4.30;99.90;;;;;;5098012;28;20699;-47
2021/01/16 16:28:14;;;;;;;1999.90;999.90;;;-4.30;99.90;;;;;;5104544;28;20296;-47
2021/01/16 16:30:39;;;;;;;1999.90;999.90;;;-4.30;99.90;;;;;;5106911;28;20235;-47
2021/01/16 16:33:05;;;;;;;1999.90;999.90;;;-4.40;99.90;;;;;;5099837;28;20234;-47
2021/01/16 16:35:31;;;;;;;1999.90;999.90;;;-4.30;99.90;;;;;;5103875;28;20268;-47
2021/01/16 16:37:59;;;;;;;1999.90;999.90;;;-4.30;99.90;;;;;;5107577;28;20456;-47
2021/01/16 16:40:27;;;;;;;1999.90;999.90;;;-4.30;99.90;;;;;;5093461;28;20183;-47
2021/01/16 16:42:58;;;;;;;1999.90;999.90;;;-4.20;99.90;;;;;;5102218;28;20421;-47
2021/01/16 16:45:24;;;;;;;1999.90;999.90;;;-4.20;99.90;;;;;;5102500;28;20501;-47
2021/01/16 16:47:51;;;;;;;1999.90;999.90;;;-4.20;99.90;;;;;;5101347;28;20449;-47
2021/01/16 16:50:17;;;;;;;1999.90;999.90;;;-4.20;99.90;;;;;;5105990;28;20398;-47
2021/01/16 16:52:54;;;;;;;1999.90;999.90;;;-4.10;99.90;;;;;;5106212;28;20560;-47
2021/01/16 16:55:21;;;;;;;1999.90;999.90;;;-4.10;99.90;;;;;;5105999;28;20437;-47
2021/01/16 16:57:49;;;;;;;1999.90;999.90;;;-4.10;99.90;;;;;;5107004;28;20498;-48
2021/01/16 17:00:22;;;;;;;1999.90;999.90;;;-4.10;99.90;;;;;;5106488;28;20459;-47
2021/01/16 17:02:48;;;;;;;1999.90;999.90;;;-4.10;99.90;;;;;;5106078;28;20914;-47
2021/01/16 17:05:14;;;;;;;1999.90;999.90;;;-4.00;99.90;;;;;;5092293;28;20229;-47
2021/01/16 17:07:43;;;;;;;1999.90;999.90;;;-4.10;99.90;;;;;;5093274;28;20558;-47
2021/01/16 17:10:12;;;;;;;1999.90;999.90;;;-4.10;99.90;;;;;;5089258;28;20434;-47
2021/01/16 17:12:37;;;;;;;1999.90;999.90;;;-4.10;99.90;;;;;;5090876;28;21068;-47
2021/01/16 17:15:05;;;;;;;1999.90;999.90;;;-4.10;99.90;;;;;;5080884;28;20437;-47
2021/01/16 17:17:31;;;;;;;1999.90;999.90;;;-4.20;99.90;;;;;;5090022;28;20233;-47
2021/01/16 17:19:57;;;;;;;1999.90;999.90;;;-4.10;99.90;;;;;;5083829;28;20300;-47
2021/01/16 17:22:22;;;;;;;1999.90;999.90;;;-4.00;99.90;;;;;;5089952;28;20597;-47
2021/01/16 17:24:48;;;;;;;1999.90;999.90;;;-4.00;99.90;;;;;;5092352;28;20185;-47
2021/01/16 17:27:14;;;;;;;1999.90;999.90;;;-4.00;99.90;;;;;;5093832;28;20212;-47
2021/01/16 17:29:40;;;;;;;1999.90;999.90;;;-4.00;99.90;;;;;;5094308;28;20177;-48
2021/01/16 17:32:06;;;;;;;1999.90;999.90;;;-4.00;99.90;;;;;;5093943;28;20978;-47
2021/01/16 17:34:33;;;;;;;1999.90;999.90;;;-3.90;99.90;;;;;;5093233;28;20686;-47
2021/01/16 17:37:08;;;;;;;1999.90;999.90;;;-3.90;99.90;;;;;;5086103;28;21019;-47
2021/01/16 17:39:35;;;;;;;1999.90;999.90;;;-4.00;99.90;;;;;;5094454;28;20648;-47
2021/01/16 17:42:02;;;;;;;1999.90;999.90;;;-4.00;99.90;;;;;;5093027;28;20176;-47
2021/01/16 17:44:31;;;;;;;1999.90;999.90;;;-3.90;99.90;;;;;;5092584;28;20207;-47
2021/01/16 17:46:56;;;;;;;1999.90;999.90;;;-4.00;99.90;;;;;;5092692;28;20458;-48
2021/01/16 17:49:22;;;;;;;1999.90;999.90;;;-4.00;99.90;;;;;;5094724;28;20444;-47
2021/01/16 17:51:48;;;;;;;1999.90;999.90;;;-3.90;99.90;;;;;;5086879;28;20220;-47
2021/01/16 17:54:14;;;;;;;1999.90;999.90;;;-4.00;99.90;;;;;;5085322;28;20187;-47
2021/01/16 17:56:40;;;;;;;1999.90;999.90;;;-4.00;99.90;;;;;;5093400;28;20188;-47
2021/01/16 17:59:06;;;;;;;1999.90;999.90;;;-4.00;99.90;;;;;;5092830;28;20473;-47
2021/01/16 18:01:37;;;;;;;1999.90;999.90;;;-3.90;99.90;;;;;;5091590;28;20197;-48
2021/01/16 18:04:03;;;;;;;1999.90;999.90;;;-3.90;99.90;;;;;;5094047;28;20425;-47
2021/01/16 18:06:28;;;;;;;1999.90;999.90;;;-4.00;99.90;;;;;;5082380;28;20217;-48
2021/01/16 18:08:54;;;;;;;1999.90;999.90;;;-4.00;99.90;;;;;;5078760;28;20796;-48
2021/01/16 18:11:21;;;;;;;1999.90;999.90;;;-4.00;99.90;;;;;;5090401;28;20222;-47
2021/01/16 18:13:47;;;;;;;1999.90;999.90;;;-4.00;99.90;;;;;;5091797;28;20535;-47
2021/01/16 18:16:12;;;;;;;1999.90;999.90;;;-4.00;99.90;;;;;;5088869;28;20974;-47
2021/01/16 18:18:38;;;;;;;1999.90;999.90;;;-4.10;99.90;;;;;;5090354;28;20983;-47
2021/01/16 18:21:07;;;;;;;1999.90;999.90;;;-4.10;99.90;;;;;;5078892;28;20176;-47
2021/01/16 18:23:35;;;;;;;1999.90;999.90;;;-4.00;99.90;;;;;;5085394;28;20198;-47
2021/01/16 18:26:05;;;;;;;1999.90;999.90;;;-4.10;99.90;;;;;;5092876;28;20453;-47
2021/01/16 18:28:31;;;;;;;1999.90;999.90;;;-4.00;99.90;;;;;;5093920;28;20424;-47
2021/01/16 18:30:56;;;;;;;1999.90;999.90;;;-4.00;99.90;;;;;;5093276;28;20259;-48
2021/01/16 18:33:22;;;;;;;1999.90;999.90;;;-4.00;99.90;;;;;;5090294;28;20458;-47
2021/01/16 18:35:48;;;;;;;1999.90;999.90;;;-4.00;99.90;;;;;;5085356;28;20192;-47
2021/01/16 18:38:14;;;;;;;1999.90;999.90;;;-4.00;99.90;;;;;;5093174;28;20262;-48
2021/01/16 18:40:44;;;;;;;1999.90;999.90;;;-4.00;99.90;;;;;;5087954;28;20222;-47
2021/01/16 18:43:10;;;;;;;1999.90;999.90;;;-4.00;99.90;;;;;;5082028;28;20418;-48
2021/01/16 18:45:35;;;;;;;1999.90;999.90;;;-4.00;99.90;;;;;;5092497;28;20450;-46
2021/01/16 18:48:01;;;;;;;1999.90;999.90;;;-4.00;99.90;;;;;;5092667;28;20791;-46
2021/01/16 18:50:26;;;;;;;1999.90;999.90;;;-4.10;99.90;;;;;;5091144;28;20644;-47
2021/01/16 18:52:53;;;;;;;1999.90;999.90;;;-4.00;99.90;;;;;;5085352;28;20291;-47
2021/01/16 18:55:19;;;;;;;1999.90;999.90;;;-4.10;99.90;;;;;;5088977;28;20181;-47
2021/01/16 18:57:45;;;;;;;1999.90;999.90;;;-4.10;99.90;;;;;;5088582;28;20281;-47
2021/01/16 19:00:12;;;;;;;1999.90;999.90;;;-4.10;99.90;;;;;;5083061;28;20465;-47
2021/01/16 19:02:41;;;;;;;1999.90;999.90;;;-4.10;99.90;;;;;;5078976;28;21236;-47
2021/01/16 19:05:08;;;;;;;1999.90;999.90;;;-4.10;99.90;;;;;;5074086;28;20859;-47
2021/01/16 19:07:34;;;;;;;1999.90;999.90;;;-4.10;99.90;;;;;;5083446;28;20445;-47
2021/01/16 19:10:00;;;;;;;1999.90;999.90;;;-4.10;99.90;;;;;;5086609;28;20575;-47
2021/01/16 19:12:28;;;;;;;1999.90;999.90;;;-4.10;99.90;;;;;;5089589;28;20203;-47
2021/01/16 19:14:58;;;;;;;1999.90;999.90;;;-4.10;99.90;;;;;;5090122;28;20226;-47
2021/01/16 19:17:24;;;;;;;1999.90;999.90;;;-4.10;99.90;;;;;;5087429;28;20442;-47
2021/01/16 19:19:49;;;;;;;1999.90;999.90;;;-4.10;99.90;;;;;;5084469;28;20432;-47
2021/01/16 19:22:15;;;;;;;1999.90;999.90;;;-4.10;99.90;;;;;;5076484;28;20202;-47
2021/01/16 19:24:40;;;;;;;1999.90;999.90;;;-4.10;99.90;;;;;;5080756;28;20184;-47
2021/01/16 19:27:06;;;;;;;1999.90;999.90;;;-4.10;99.90;;;;;;5087112;28;20203;-47
2021/01/16 19:29:33;;;;;;;1999.90;999.90;;;-4.10;99.90;;;;;;5086398;28;20378;-47
2021/01/16 19:31:59;;;;;;;1999.90;999.90;;;-4.10;99.90;;;;;;5074487;28;20465;-47
2021/01/16 19:34:25;;;;;;;1999.90;999.90;;;-4.10;99.90;;;;;;5086377;28;20432;-47
2021/01/16 19:36:51;;;;;;;1999.90;999.90;;;-4.10;99.90;;;;;;5082063;28;20461;-46
2021/01/16 19:39:21;;;;;;;1999.90;999.90;;;-4.10;99.90;;;;;;5086943;28;20429;-46
2021/01/16 19:41:49;;;;;;;1999.90;999.90;;;-4.10;99.90;;;;;;5087990;28;20418;-47
2021/01/16 19:44:19;;;;;;;1999.90;999.90;;;-4.10;99.90;;;;;;5088627;28;20661;-47
2021/01/16 19:46:52;;;;;;;1999.90;999.90;;;-4.10;99.90;;;;;;5086251;28;20869;-47
2021/01/16 19:49:19;;;;;;;1999.90;999.90;;;-4.10;99.90;;;;;;5079617;28;20462;-47
2021/01/16 19:51:52;;;;;;;1999.90;999.90;;;-4.00;99.90;;;;;;5100350;28;20216;-47
2021/01/16 19:54:19;;;;;;;1999.90;999.90;;;-4.10;99.90;;;;;;5087326;28;20434;-46
2021/01/16 19:56:46;;;;;;;1999.90;999.90;;;-4.10;99.90;;;;;;5092971;28;20506;-47
2021/01/16 19:59:12;;;;;;;1999.90;999.90;;;-4.10;99.90;;;;;;5097073;28;20840;-47
2021/01/16 20:01:43;;;;;;;1999.90;999.90;;;-4.10;99.90;;;;;;5086979;28;20244;-46
2021/01/16 20:04:11;;;;;;;1999.90;999.90;;;-4.20;99.90;;;;;;5079688;28;20691;-47
2021/01/16 20:06:40;;;;;;;1999.90;999.90;;;-4.10;99.90;;;;;;5065733;28;20462;-47
2021/01/16 20:09:06;;;;;;;1999.90;999.90;;;-4.10;99.90;;;;;;5065946;28;20442;-47
2021/01/16 20:11:33;;;;;;;1999.90;999.90;;;-4.20;99.90;;;;;;5067052;28;20689;-46
2021/01/16 20:13:59;;;;;;;1999.90;999.90;;;-4.20;99.90;;;;;;5066923;28;20489;-46
2021/01/16 20:16:24;;;;;;;1999.90;999.90;;;-4.20;99.90;;;;;;5066399;28;20517;-47
2021/01/16 20:18:51;;;;;;;1999.90;999.90;;;-4.20;99.90;;;;;;5067292;28;20605;-47
2021/01/16 20:21:16;;;;;;;1999.90;999.90;;;-4.20;99.90;;;;;;5067532;28;20287;-46
2021/01/16 20:23:44;;;;;;;1999.90;999.90;;;-4.20;99.90;;;;;;5074050;28;20201;-46
2021/01/16 20:26:11;;;;;;;1999.90;999.90;;;-4.20;99.90;;;;;;5066789;28;20219;-46
2021/01/16 20:28:36;;;;;;;1999.90;999.90;;;-4.20;99.90;;;;;;5065932;28;20188;-46
2021/01/16 20:31:05;;;;;;;1999.90;999.90;;;-4.20;99.90;;;;;;5067071;28;20548;-46
2021/01/16 20:33:31;;;;;;;1999.90;999.90;;;-4.10;99.90;;;;;;5065154;28;20455;-45
2021/01/16 20:35:57;;;;;;;1999.90;999.90;;;-4.20;99.90;;;;;;5066818;28;20451;-46
2021/01/16 20:38:23;;;;;;;1999.90;999.90;;;-4.10;99.90;;;;;;5065155;28;20430;-46
2021/01/16 20:40:49;;;;;;;1999.90;999.90;;;-4.20;99.90;;;;;;5071932;28;20428;-46
2021/01/16 20:43:14;;;;;;;1999.90;999.90;;;-4.20;99.90;;;;;;5070984;28;20551;-46
2021/01/16 20:45:40;;;;;;;1999.90;999.90;;;-4.20;99.90;;;;;;5069625;28;20470;-46
2021/01/16 20:48:06;;;;;;;1999.90;999.90;;;-4.20;99.90;;;;;;5071395;28;20181;-46
2021/01/16 20:50:32;;;;;;;1999.90;999.90;;;-4.20;99.90;;;;;;5068977;28;20645;-46
2021/01/16 20:52:57;;;;;;;1999.90;999.90;;;-4.20;99.90;;;;;;5070436;28;20896;-46
2021/01/16 20:55:24;;;;;;;1999.90;999.90;;;-4.10;99.90;;;;;;5070043;28;20209;-46
2021/01/16 20:57:50;;;;;;;1999.90;999.90;;;-4.10;99.90;;;;;;5074440;28;20275;-46
2021/01/16 21:00:17;;;;;;;1999.90;999.90;;;-4.10;99.90;;;;;;5076004;28;20268;-46
2021/01/16 21:02:43;;;;;;;1999.90;999.90;;;-4.10;99.90;;;;;;5083800;28;20670;-46
2021/01/16 21:05:10;;;;;;;1999.90;999.90;;;-4.20;99.90;;;;;;5082057;28;20715;-46
2021/01/16 21:07:42;;;;;;;1999.90;999.90;;;-4.20;99.90;;;;;;5085054;28;20478;-45
2021/01/16 21:10:13;;;;;;;1999.90;999.90;;;-4.10;99.90;;;;;;5069534;28;20415;-46
2021/01/16 21:12:42;;;;;;;1999.90;999.90;;;-4.20;99.90;;;;;;5074372;28;20220;-45
2021/01/16 21:15:09;;;;;;;1999.90;999.90;;;-4.20;99.90;;;;;;5076155;28;20415;-46
2021/01/16 21:17:35;;;;;;;1999.90;999.90;;;-4.20;99.90;;;;;;5070273;28;20436;-46
2021/01/16 21:20:01;;;;;;;1999.90;999.90;;;-4.20;99.90;;;;;;5069557;28;20441;-46
2021/01/16 21:22:27;;;;;;;1999.90;999.90;;;-4.20;99.90;;;;;;5068371;28;20180;-46
2021/01/16 21:24:53;;;;;;;1999.90;999.90;;;-4.20;99.90;;;;;;5078919;28;20207;-46
2021/01/16 21:27:18;;;;;;;1999.90;999.90;;;-4.20;99.90;;;;;;5068888;28;20266;-46
2021/01/16 21:29:44;;;;;;;1999.90;999.90;;;-4.20;99.90;;;;;;5079128;28;20857;-45
2021/01/16 21:32:09;;;;;;;1999.90;999.90;;;-4.20;99.90;;;;;;5084745;28;20219;-46
2021/01/16 21:34:35;;;;;;;1999.90;999.90;;;-4.20;99.90;;;;;;5089041;28;20747;-46
2021/01/16 21:37:03;;;;;;;1999.90;999.90;;;-4.20;99.90;;;;;;5085279;28;20205;-46
2021/01/16 21:39:28;;;;;;;1999.90;999.90;;;-4.20;99.90;;;;;;5075501;28;20188;-46
2021/01/16 21:41:54;;;;;;;1999.90;999.90;;;-4.20;99.90;;;;;;5069087;28;20192;-46
2021/01/16 21:44:19;;;;;;;1999.90;999.90;;;-4.20;99.90;;;;;;5069172;28;20180;-46
2021/01/16 21:46:45;;;;;;;1999.90;999.90;;;-4.20;99.90;;;;;;5075452;28;20211;-46
2021/01/16 21:49:11;;;;;;;1999.90;999.90;;;-4.20;99.90;;;;;;5070520;28;20184;-46
2021/01/16 21:51:43;;;;;;;1999.90;999.90;;;-4.30;99.90;;;;;;5067374;28;20192;-46
2021/01/16 21:57:31;;;;;;;1999.90;999.90;;;-4.30;99.90;;;;;;5080416;28;20700;-46
2021/01/16 21:59:56;;;;;;;1999.90;999.90;;;-4.30;99.90;;;;;;5085341;28;20176;-46
2021/01/16 22:02:22;;;;;;;1999.90;999.90;;;-4.30;99.90;;;;;;5078620;28;20200;-45
2021/01/16 22:04:48;;;;;;;1999.90;999.90;;;-4.30;99.90;;;;;;5085597;28;20192;-46
2021/01/16 22:07:14;;;;;;;1999.90;999.90;;;-4.40;99.90;;;;;;5076964;28;20192;-46
2021/01/16 22:09:40;;;;;;;1999.90;999.90;;;-4.40;99.90;;;;;;5081063;28;20465;-46
2021/01/16 22:12:06;;;;;;;1999.90;999.90;;;-4.40;99.90;;;;;;5081547;28;21009;-45
2021/01/16 22:14:31;;;;;;;1999.90;999.90;;;-4.30;99.90;;;;;;5088792;28;20622;-46
2021/01/16 22:16:58;;;;;;;1999.90;999.90;;;-4.30;99.90;;;;;;5078028;28;20446;-46
2021/01/16 22:19:23;;;;;;;1999.90;999.90;;;-4.30;99.90;;;;;;5075570;28;20199;-46
2021/01/16 22:21:53;;;;;;;1999.90;999.90;;;-4.30;99.90;;;;;;5080407;28;20443;-46
2021/01/16 22:24:19;;;;;;;1999.90;999.90;;;-4.40;99.90;;;;;;5081061;28;20188;-46
2021/01/16 22:26:45;;;;;;;1999.90;999.90;;;-4.40;99.90;;;;;;5071746;28;20199;-46
2021/01/16 22:29:11;;;;;;;1999.90;999.90;;;-4.50;99.90;;;;;;5081417;28;20184;-46
2021/01/16 22:31:37;;;;;;;1999.90;999.90;;;-4.50;99.90;;;;;;5078686;28;20831;-46
2021/01/16 22:34:06;;;;;;;1999.90;999.90;;;-4.50;99.90;;;;;;5068170;28;20425;-45
2021/01/16 22:36:57;;;;;;;1999.90;999.90;;;-4.50;99.90;;;;;;5075882;28;20203;-46
2021/01/16 22:39:23;;;;;;;1999.90;999.90;;;-4.50;99.90;;;;;;5073553;28;20184;-46
2021/01/16 22:41:49;;;;;;;1999.90;999.90;;;-4.50;99.90;;;;;;5086803;28;20190;-46
2021/01/16 22:44:15;;;;;;;1999.90;999.90;;;-4.50;99.90;;;;;;5071832;28;20188;-46
2021/01/16 22:46:44;;;;;;;1999.90;999.90;;;-4.50;99.90;;;;;;5067889;28;20207;-46
2021/01/16 22:49:14;;;;;;;1999.90;999.90;;;-4.50;99.90;;;;;;5069761;28;20191;-46
2021/01/16 22:51:40;;;;;;;1999.90;999.90;;;-4.50;99.90;;;;;;5067731;28;20219;-46
2021/01/16 22:54:11;;;;;;;1999.90;999.90;;;-4.60;99.90;;;;;;5068447;28;20180;-46
2021/01/16 22:56:37;;;;;;;1999.90;999.90;;;-4.60;99.90;;;;;;5072872;28;20598;-47
2021/01/16 22:59:02;;;;;;;1999.90;999.90;;;-4.60;99.90;;;;;;5075998;28;20194;-46
2021/01/16 23:01:28;;;;;;;1999.90;999.90;;;-4.60;99.90;;;;;;5086510;28;20401;-46
2021/01/16 23:03:53;;;;;;;1999.90;999.90;;;-4.70;99.90;;;;;;5083707;28;20186;-46
2021/01/16 23:06:19;;;;;;;1999.90;999.90;;;-4.60;99.90;;;;;;5078328;28;20204;-46
2021/01/16 23:08:45;;;;;;;1999.90;999.90;;;-4.50;99.90;;;;;;5068443;28;20255;-47
2021/01/16 23:11:13;;;;;;;1999.90;999.90;;;-4.60;99.90;;;;;;5069585;28;20176;-46
2021/01/16 23:13:39;;;;;;;1999.90;999.90;;;-4.60;99.90;;;;;;5076157;28;20199;-46
2021/01/16 23:16:12;;;;;;;1999.90;999.90;;;-4.60;99.90;;;;;;5086670;28;20210;-46
2021/01/16 23:18:38;;;;;;;1999.90;999.90;;;-4.60;99.90;;;;;;5087920;28;20176;-46
2021/01/16 23:21:05;;;;;;;1999.90;999.90;;;-4.60;99.90;;;;;;5075670;28;20478;-46
2021/01/16 23:23:32;;;;;;;1999.90;999.90;;;-4.60;99.90;;;;;;5071220;28;20445;-46
2021/01/16 23:26:02;;;;;;;1999.90;999.90;;;-4.60;99.90;;;;;;5086110;28;20465;-46
2021/01/16 23:28:30;;;;;;;1999.90;999.90;;;-4.60;99.90;;;;;;5080016;28;20184;-46
2021/01/16 23:30:56;;;;;;;1999.90;999.90;;;-4.60;99.90;;;;;;5068247;28;20267;-46
2021/01/16 23:33:24;;;;;;;1999.90;999.90;;;-4.60;99.90;;;;;;5067820;28;20322;-46
2021/01/16 23:35:52;;;;;;;1999.90;999.90;;;-4.60;99.90;;;;;;5066235;28;20324;-46
2021/01/16 23:38:23;;;;;;;1999.90;999.90;;;-4.60;99.90;;;;;;5065540;28;20184;-47
2021/01/16 23:40:50;;;;;;;1999.90;999.90;;;-4.60;99.90;;;;;;5067675;28;20199;-46
2021/01/16 23:43:16;;;;;;;1999.90;999.90;;;-4.70;99.90;;;;;;5067176;28;20196;-46
2021/01/16 23:45:41;;;;;;;1999.90;999.90;;;-4.70;99.90;;;;;;5069165;28;20220;-46
2021/01/16 23:48:11;;;;;;;1999.90;999.90;;;-4.70;99.90;;;;;;5072131;28;20186;-46
2021/01/16 23:50:38;;;;;;;1999.90;999.90;;;-4.70;99.90;;;;;;5067147;28;20191;-47
2021/01/16 23:53:04;;;;;;;1999.90;999.90;;;-4.70;99.90;;;;;;5066901;28;20228;-46
2021/01/16 23:55:30;;;;;;;1999.90;999.90;;;-4.70;99.90;;;;;;5072624;28;20208;-46
2021/01/16 23:57:55;;;;;;;1999.90;999.90;;;-4.70;99.90;;;;;;5078431;28;21471;-46
